sensor_id;sensor_type;location;lat;lon;timestamp;temperature;humidity
33815;DHT22;20121;51.910;8.406;2022-08-03T00:01:42;19.20;99.90
33815;DHT22;20121;51.910;8.406;2022-08-03T00:04:09;19.20;99.90
33815;DHT22;20121;51.910;8.406;2022-08-03T00:06:36;19.20;99.90
33815;DHT22;20121;51.910;8.406;2022-08-03T00:09:05;19.20;99.90
33815;DHT22;20121;51.910;8.406;2022-08-03T00:11:31;19.10;99.90
33815;DHT22;20121;51.910;8.406;2022-08-03T00:13:57;19.10;99.90
33815;DHT22;20121;51.910;8.406;2022-08-03T00:16:23;19.10;99.90
33815;DHT22;20121;51.910;8.406;2022-08-03T00:18:50;19.10;99.90
33815;DHT22;20121;51.910;8.406;2022-08-03T00:21:17;19.00;99.90
33815;DHT22;20121;51.910;8.406;2022-08-03T00:23:43;19.00;99.90
33815;DHT22;20121;51.910;8.406;2022-08-03T00:26:09;18.80;99.90
33815;DHT22;20121;51.910;8.406;2022-08-03T00:28:35;18.90;99.90
33815;DHT22;20121;51.910;8.406;2022-08-03T00:31:00;18.80;99.90
33815;DHT22;20121;51.910;8.406;2022-08-03T00:33:26;18.80;99.90
33815;DHT22;20121;51.910;8.406;2022-08-03T00:35:52;18.80;99.90
33815;DHT22;20121;51.910;8.406;2022-08-03T00:38:18;18.80;99.90
33815;DHT22;20121;51.910;8.406;2022-08-03T00:40:44;18.80;99.90
33815;DHT22;20121;51.910;8.406;2022-08-03T00:43:10;18.80;99.90
33815;DHT22;20121;51.910;8.406;2022-08-03T00:45:38;18.70;99.90
33815;DHT22;20121;51.910;8.406;2022-08-03T00:48:05;18.70;99.90
33815;DHT22;20121;51.910;8.406;2022-08-03T00:50:34;18.60;99.90
33815;DHT22;20121;51.910;8.406;2022-08-03T00:53:01;18.60;99.90
33815;DHT22;20121;51.910;8.406;2022-08-03T00:55:28;18.60;99.90
33815;DHT22;20121;51.910;8.406;2022-08-03T00:57:55;18.60;99.90
33815;DHT22;20121;51.910;8.406;2022-08-03T01:00:23;18.50;99.90
33815;DHT22;20121;51.910;8.406;2022-08-03T01:02:49;18.50;99.90
33815;DHT22;20121;51.910;8.406;2022-08-03T01:05:15;18.50;99.90
33815;DHT22;20121;51.910;8.406;2022-08-03T01:13:24;18.50;99.90
33815;DHT22;20121;51.910;8.406;2022-08-03T01:16:13;18.50;99.90
33815;DHT22;20121;51.910;8.406;2022-08-03T01:18:51;18.40;99.90
33815;DHT22;20121;51.910;8.406;2022-08-03T01:21:30;18.40;99.90
33815;DHT22;20121;51.910;8.406;2022-08-03T01:30:07;18.30;99.90
33815;DHT22;20121;51.910;8.406;2022-08-03T01:32:17;18.20;99.90
33815;DHT22;20121;51.910;8.406;2022-08-03T01:34:51;18.20;99.90
33815;DHT22;20121;51.910;8.406;2022-08-03T01:37:25;18.30;99.90
33815;DHT22;20121;51.910;8.406;2022-08-03T01:39:54;18.20;99.90
33815;DHT22;20121;51.910;8.406;2022-08-03T01:42:22;18.20;99.90
33815;DHT22;20121;51.910;8.406;2022-08-03T01:44:50;18.20;99.90
33815;DHT22;20121;51.910;8.406;2022-08-03T01:47:19;18.20;99.90
33815;DHT22;20121;51.910;8.406;2022-08-03T01:49:47;18.20;99.90
33815;DHT22;20121;51.910;8.406;2022-08-03T01:52:16;18.10;99.90
33815;DHT22;20121;51.910;8.406;2022-08-03T01:54:45;18.20;99.90
33815;DHT22;20121;51.910;8.406;2022-08-03T01:57:12;18.10;99.90
33815;DHT22;20121;51.910;8.406;2022-08-03T01:59:40;18.10;99.90
33815;DHT22;20121;51.910;8.406;2022-08-03T02:02:07;18.10;99.90
33815;DHT22;20121;51.910;8.406;2022-08-03T02:04:37;18.10;99.90
33815;DHT22;20121;51.910;8.406;2022-08-03T02:07:02;18.10;99.90
33815;DHT22;20121;51.910;8.406;2022-08-03T02:09:28;18.00;99.90
33815;DHT22;20121;51.910;8.406;2022-08-03T02:11:56;18.00;99.90
33815;DHT22;20121;51.910;8.406;2022-08-03T02:14:23;18.00;99.90
33815;DHT22;20121;51.910;8.406;2022-08-03T02:16:51;18.00;99.90
33815;DHT22;20121;51.910;8.406;2022-08-03T02:19:17;17.90;99.90
33815;DHT22;20121;51.910;8.406;2022-08-03T02:21:44;17.90;99.90
33815;DHT22;20121;51.910;8.406;2022-08-03T02:24:11;17.90;99.90
33815;DHT22;20121;51.910;8.406;2022-08-03T02:26:37;17.90;99.90
33815;DHT22;20121;51.910;8.406;2022-08-03T02:29:19;17.90;99.90
33815;DHT22;20121;51.910;8.406;2022-08-03T02:31:47;17.80;99.90
33815;DHT22;20121;51.910;8.406;2022-08-03T02:34:14;17.80;99.90
33815;DHT22;20121;51.910;8.406;2022-08-03T02:36:42;17.80;99.90
33815;DHT22;20121;51.910;8.406;2022-08-03T02:39:10;17.80;99.90
33815;DHT22;20121;51.910;8.406;2022-08-03T02:41:45;17.80;99.90
33815;DHT22;20121;51.910;8.406;2022-08-03T02:44:12;17.80;99.90
33815;DHT22;20121;51.910;8.406;2022-08-03T02:46:43;17.80;99.90
33815;DHT22;20121;51.910;8.406;2022-08-03T02:49:11;17.80;99.90
33815;DHT22;20121;51.910;8.406;2022-08-03T02:51:38;17.70;99.90
33815;DHT22;20121;51.910;8.406;2022-08-03T02:54:06;17.70;99.90
33815;DHT22;20121;51.910;8.406;2022-08-03T02:56:34;17.70;99.90
33815;DHT22;20121;51.910;8.406;2022-08-03T02:59:00;17.60;99.90
33815;DHT22;20121;51.910;8.406;2022-08-03T03:01:28;17.60;99.90
33815;DHT22;20121;51.910;8.406;2022-08-03T03:03:56;17.60;99.90
33815;DHT22;20121;51.910;8.406;2022-08-03T03:06:25;17.60;99.90
33815;DHT22;20121;51.910;8.406;2022-08-03T03:08:52;17.60;99.90
33815;DHT22;20121;51.910;8.406;2022-08-03T03:11:20;17.60;99.90
33815;DHT22;20121;51.910;8.406;2022-08-03T03:13:47;17.50;99.90
33815;DHT22;20121;51.910;8.406;2022-08-03T03:16:14;17.50;99.90
33815;DHT22;20121;51.910;8.406;2022-08-03T03:18:42;17.50;99.90
33815;DHT22;20121;51.910;8.406;2022-08-03T03:21:09;17.50;99.90
33815;DHT22;20121;51.910;8.406;2022-08-03T03:23:40;17.40;99.90
33815;DHT22;20121;51.910;8.406;2022-08-03T03:26:06;17.40;99.90
33815;DHT22;20121;51.910;8.406;2022-08-03T03:28:32;17.40;99.90
33815;DHT22;20121;51.910;8.406;2022-08-03T03:30:59;17.40;99.90
33815;DHT22;20121;51.910;8.406;2022-08-03T03:33:25;17.40;99.90
33815;DHT22;20121;51.910;8.406;2022-08-03T03:35:51;17.30;99.90
33815;DHT22;20121;51.910;8.406;2022-08-03T03:38:18;17.30;99.90
33815;DHT22;20121;51.910;8.406;2022-08-03T03:40:44;17.30;99.90
33815;DHT22;20121;51.910;8.406;2022-08-03T03:43:11;17.30;99.90
33815;DHT22;20121;51.910;8.406;2022-08-03T03:45:40;17.30;99.90
33815;DHT22;20121;51.910;8.406;2022-08-03T03:48:07;17.30;99.90
33815;DHT22;20121;51.910;8.406;2022-08-03T03:50:34;17.30;99.90
33815;DHT22;20121;51.910;8.406;2022-08-03T03:53:02;17.20;99.90
33815;DHT22;20121;51.910;8.406;2022-08-03T03:55:27;17.30;99.90
33815;DHT22;20121;51.910;8.406;2022-08-03T03:57:53;17.30;99.90
33815;DHT22;20121;51.910;8.406;2022-08-03T04:00:19;17.20;99.90
33815;DHT22;20121;51.910;8.406;2022-08-03T04:02:45;17.20;99.90
33815;DHT22;20121;51.910;8.406;2022-08-03T04:05:12;17.20;99.90
33815;DHT22;20121;51.910;8.406;2022-08-03T04:08:12;17.20;99.90
33815;DHT22;20121;51.910;8.406;2022-08-03T04:11:33;17.20;99.90
33815;DHT22;20121;51.910;8.406;2022-08-03T04:14:32;17.20;99.90
33815;DHT22;20121;51.910;8.406;2022-08-03T04:17:05;17.20;99.90
33815;DHT22;20121;51.910;8.406;2022-08-03T04:19:36;17.20;99.90
33815;DHT22;20121;51.910;8.406;2022-08-03T04:22:05;17.20;99.90
33815;DHT22;20121;51.910;8.406;2022-08-03T04:24:40;17.20;99.90
33815;DHT22;20121;51.910;8.406;2022-08-03T04:27:08;17.20;99.90
33815;DHT22;20121;51.910;8.406;2022-08-03T04:29:40;17.30;99.90
33815;DHT22;20121;51.910;8.406;2022-08-03T04:32:07;17.20;99.90
33815;DHT22;20121;51.910;8.406;2022-08-03T04:34:33;17.30;99.90
33815;DHT22;20121;51.910;8.406;2022-08-03T04:37:03;17.30;99.90
33815;DHT22;20121;51.910;8.406;2022-08-03T04:39:30;17.30;99.90
33815;DHT22;20121;51.910;8.406;2022-08-03T04:42:05;17.40;99.90
33815;DHT22;20121;51.910;8.406;2022-08-03T04:44:35;17.40;99.90
33815;DHT22;20121;51.910;8.406;2022-08-03T04:47:02;17.40;99.90
33815;DHT22;20121;51.910;8.406;2022-08-03T04:49:28;17.40;99.90
33815;DHT22;20121;51.910;8.406;2022-08-03T04:51:54;17.50;99.90
33815;DHT22;20121;51.910;8.406;2022-08-03T04:54:20;17.50;99.90
33815;DHT22;20121;51.910;8.406;2022-08-03T04:56:46;17.50;99.90
33815;DHT22;20121;51.910;8.406;2022-08-03T04:59:11;17.60;99.90
33815;DHT22;20121;51.910;8.406;2022-08-03T05:01:39;17.70;99.90
33815;DHT22;20121;51.910;8.406;2022-08-03T05:04:05;17.90;99.90
33815;DHT22;20121;51.910;8.406;2022-08-03T05:06:31;18.00;99.90
33815;DHT22;20121;51.910;8.406;2022-08-03T05:08:56;18.10;99.90
33815;DHT22;20121;51.910;8.406;2022-08-03T05:11:22;18.30;99.90
33815;DHT22;20121;51.910;8.406;2022-08-03T05:13:48;18.70;99.90
33815;DHT22;20121;51.910;8.406;2022-08-03T05:16:14;19.00;99.90
33815;DHT22;20121;51.910;8.406;2022-08-03T05:18:43;19.40;99.90
33815;DHT22;20121;51.910;8.406;2022-08-03T05:21:09;19.70;99.90
33815;DHT22;20121;51.910;8.406;2022-08-03T05:23:36;20.40;99.90
33815;DHT22;20121;51.910;8.406;2022-08-03T05:26:02;20.30;99.90
33815;DHT22;20121;51.910;8.406;2022-08-03T05:28:28;20.50;99.90
33815;DHT22;20121;51.910;8.406;2022-08-03T05:30:54;20.70;99.90
33815;DHT22;20121;51.910;8.406;2022-08-03T05:33:19;20.80;99.90
33815;DHT22;20121;51.910;8.406;2022-08-03T05:35:45;20.90;99.90
33815;DHT22;20121;51.910;8.406;2022-08-03T05:38:11;21.10;99.90
33815;DHT22;20121;51.910;8.406;2022-08-03T05:40:36;21.40;99.90
33815;DHT22;20121;51.910;8.406;2022-08-03T05:43:02;21.60;99.90
33815;DHT22;20121;51.910;8.406;2022-08-03T05:45:27;21.70;99.90
33815;DHT22;20121;51.910;8.406;2022-08-03T05:47:53;21.90;99.90
33815;DHT22;20121;51.910;8.406;2022-08-03T05:50:19;22.00;99.90
33815;DHT22;20121;51.910;8.406;2022-08-03T05:52:46;22.20;99.90
33815;DHT22;20121;51.910;8.406;2022-08-03T05:55:12;22.40;99.90
33815;DHT22;20121;51.910;8.406;2022-08-03T05:57:38;22.50;99.90
33815;DHT22;20121;51.910;8.406;2022-08-03T06:00:09;22.70;99.90
33815;DHT22;20121;51.910;8.406;2022-08-03T06:02:34;22.80;99.90
33815;DHT22;20121;51.910;8.406;2022-08-03T06:05:00;22.90;99.90
33815;DHT22;20121;51.910;8.406;2022-08-03T06:07:26;22.10;99.90
33815;DHT22;20121;51.910;8.406;2022-08-03T06:09:52;23.00;99.90
33815;DHT22;20121;51.910;8.406;2022-08-03T06:12:18;23.00;99.90
33815;DHT22;20121;51.910;8.406;2022-08-03T06:14:44;23.00;99.90
33815;DHT22;20121;51.910;8.406;2022-08-03T06:17:09;22.90;99.90
33815;DHT22;20121;51.910;8.406;2022-08-03T06:19:35;23.20;99.90
33815;DHT22;20121;51.910;8.406;2022-08-03T06:22:01;23.20;99.90
33815;DHT22;20121;51.910;8.406;2022-08-03T06:24:27;23.30;99.90
33815;DHT22;20121;51.910;8.406;2022-08-03T06:26:53;23.40;99.90
33815;DHT22;20121;51.910;8.406;2022-08-03T06:29:19;23.50;99.90
33815;DHT22;20121;51.910;8.406;2022-08-03T06:31:44;23.60;99.90
33815;DHT22;20121;51.910;8.406;2022-08-03T06:34:10;23.70;99.90
33815;DHT22;20121;51.910;8.406;2022-08-03T06:36:35;23.80;99.90
33815;DHT22;20121;51.910;8.406;2022-08-03T06:39:02;23.90;99.90
33815;DHT22;20121;51.910;8.406;2022-08-03T06:41:28;24.10;99.90
33815;DHT22;20121;51.910;8.406;2022-08-03T06:43:54;24.20;99.90
33815;DHT22;20121;51.910;8.406;2022-08-03T06:46:20;24.20;99.90
33815;DHT22;20121;51.910;8.406;2022-08-03T06:48:46;24.20;99.90
33815;DHT22;20121;51.910;8.406;2022-08-03T06:51:12;24.20;99.90
33815;DHT22;20121;51.910;8.406;2022-08-03T06:53:38;24.20;99.90
33815;DHT22;20121;51.910;8.406;2022-08-03T06:56:04;24.30;99.90
33815;DHT22;20121;51.910;8.406;2022-08-03T06:58:30;24.40;99.90
33815;DHT22;20121;51.910;8.406;2022-08-03T07:00:56;24.50;99.90
33815;DHT22;20121;51.910;8.406;2022-08-03T07:03:22;24.50;99.90
33815;DHT22;20121;51.910;8.406;2022-08-03T07:05:48;24.70;99.90
33815;DHT22;20121;51.910;8.406;2022-08-03T07:08:15;24.20;99.90
33815;DHT22;20121;51.910;8.406;2022-08-03T07:10:41;24.70;99.90
33815;DHT22;20121;51.910;8.406;2022-08-03T07:13:07;24.50;99.90
33815;DHT22;20121;51.910;8.406;2022-08-03T07:15:34;24.70;99.90
33815;DHT22;20121;51.910;8.406;2022-08-03T07:17:59;24.80;99.90
33815;DHT22;20121;51.910;8.406;2022-08-03T07:20:25;24.90;99.90
33815;DHT22;20121;51.910;8.406;2022-08-03T07:22:51;25.00;99.90
33815;DHT22;20121;51.910;8.406;2022-08-03T07:25:16;25.00;99.90
33815;DHT22;20121;51.910;8.406;2022-08-03T07:27:43;25.10;99.90
33815;DHT22;20121;51.910;8.406;2022-08-03T07:30:09;25.30;99.90
33815;DHT22;20121;51.910;8.406;2022-08-03T07:32:35;25.40;99.90
33815;DHT22;20121;51.910;8.406;2022-08-03T07:35:01;25.60;99.90
33815;DHT22;20121;51.910;8.406;2022-08-03T07:37:28;25.80;99.90
33815;DHT22;20121;51.910;8.406;2022-08-03T07:39:54;25.80;99.90
33815;DHT22;20121;51.910;8.406;2022-08-03T07:42:19;26.00;99.90
33815;DHT22;20121;51.910;8.406;2022-08-03T07:44:45;26.10;99.90
33815;DHT22;20121;51.910;8.406;2022-08-03T07:47:11;26.50;99.90
33815;DHT22;20121;51.910;8.406;2022-08-03T07:49:40;26.30;99.90
33815;DHT22;20121;51.910;8.406;2022-08-03T07:52:06;26.40;99.90
33815;DHT22;20121;51.910;8.406;2022-08-03T07:54:50;27.20;99.90
33815;DHT22;20121;51.910;8.406;2022-08-03T07:57:16;26.70;99.90
33815;DHT22;20121;51.910;8.406;2022-08-03T07:59:41;26.80;99.90
33815;DHT22;20121;51.910;8.406;2022-08-03T08:02:07;27.00;99.90
33815;DHT22;20121;51.910;8.406;2022-08-03T08:04:32;27.00;99.90
33815;DHT22;20121;51.910;8.406;2022-08-03T08:06:58;27.00;99.90
33815;DHT22;20121;51.910;8.406;2022-08-03T08:09:24;27.20;99.90
33815;DHT22;20121;51.910;8.406;2022-08-03T08:11:49;27.40;99.90
33815;DHT22;20121;51.910;8.406;2022-08-03T08:14:15;27.50;99.90
33815;DHT22;20121;51.910;8.406;2022-08-03T08:16:41;27.60;99.90
33815;DHT22;20121;51.910;8.406;2022-08-03T08:19:06;27.80;99.90
33815;DHT22;20121;51.910;8.406;2022-08-03T08:21:32;28.00;99.70
33815;DHT22;20121;51.910;8.406;2022-08-03T08:23:58;28.10;99.70
33815;DHT22;20121;51.910;8.406;2022-08-03T08:26:24;28.20;99.10
33815;DHT22;20121;51.910;8.406;2022-08-03T08:28:50;28.30;98.70
33815;DHT22;20121;51.910;8.406;2022-08-03T08:31:17;28.30;98.70
33815;DHT22;20121;51.910;8.406;2022-08-03T08:33:43;28.30;99.40
33815;DHT22;20121;51.910;8.406;2022-08-03T08:36:08;28.50;98.60
33815;DHT22;20121;51.910;8.406;2022-08-03T08:38:34;28.50;98.80
33815;DHT22;20121;51.910;8.406;2022-08-03T08:41:00;28.60;99.10
33815;DHT22;20121;51.910;8.406;2022-08-03T08:43:26;28.70;99.20
33815;DHT22;20121;51.910;8.406;2022-08-03T08:45:53;28.90;98.70
33815;DHT22;20121;51.910;8.406;2022-08-03T08:48:23;29.20;97.70
33815;DHT22;20121;51.910;8.406;2022-08-03T08:50:52;29.20;97.90
33815;DHT22;20121;51.910;8.406;2022-08-03T08:53:19;29.50;97.60
33815;DHT22;20121;51.910;8.406;2022-08-03T08:55:46;29.50;96.90
33815;DHT22;20121;51.910;8.406;2022-08-03T08:58:15;29.70;96.70
33815;DHT22;20121;51.910;8.406;2022-08-03T09:00:43;29.90;95.30
33815;DHT22;20121;51.910;8.406;2022-08-03T09:03:10;29.80;96.10
33815;DHT22;20121;51.910;8.406;2022-08-03T09:05:36;29.90;96.20
33815;DHT22;20121;51.910;8.406;2022-08-03T09:08:04;30.00;99.90
33815;DHT22;20121;51.910;8.406;2022-08-03T09:10:30;30.50;99.90
33815;DHT22;20121;51.910;8.406;2022-08-03T09:12:56;30.40;95.20
33815;DHT22;20121;51.910;8.406;2022-08-03T09:15:30;30.50;96.20
33815;DHT22;20121;51.910;8.406;2022-08-03T09:17:59;30.70;94.60
33815;DHT22;20121;51.910;8.406;2022-08-03T09:20:27;30.80;99.60
33815;DHT22;20121;51.910;8.406;2022-08-03T09:22:58;31.30;94.20
33815;DHT22;20121;51.910;8.406;2022-08-03T09:25:28;31.40;93.60
33815;DHT22;20121;51.910;8.406;2022-08-03T09:28:10;31.50;92.40
33815;DHT22;20121;51.910;8.406;2022-08-03T09:30:41;31.70;91.20
33815;DHT22;20121;51.910;8.406;2022-08-03T09:33:09;31.70;90.90
33815;DHT22;20121;51.910;8.406;2022-08-03T09:35:46;31.70;91.90
33815;DHT22;20121;51.910;8.406;2022-08-03T09:38:14;31.70;92.00
33815;DHT22;20121;51.910;8.406;2022-08-03T09:40:40;32.00;91.60
33815;DHT22;20121;51.910;8.406;2022-08-03T09:43:07;32.00;91.00
33815;DHT22;20121;51.910;8.406;2022-08-03T09:45:34;31.90;89.70
33815;DHT22;20121;51.910;8.406;2022-08-03T09:48:26;31.90;90.10
33815;DHT22;20121;51.910;8.406;2022-08-03T09:51:00;32.20;90.10
33815;DHT22;20121;51.910;8.406;2022-08-03T09:53:26;32.40;90.20
33815;DHT22;20121;51.910;8.406;2022-08-03T09:58:21;32.50;88.50
33815;DHT22;20121;51.910;8.406;2022-08-03T10:03:21;32.50;89.20
33815;DHT22;20121;51.910;8.406;2022-08-03T10:05:46;32.60;87.50
33815;DHT22;20121;51.910;8.406;2022-08-03T10:08:16;32.80;87.50
33815;DHT22;20121;51.910;8.406;2022-08-03T10:10:44;32.90;84.80
33815;DHT22;20121;51.910;8.406;2022-08-03T10:13:12;32.90;85.20
33815;DHT22;20121;51.910;8.406;2022-08-03T10:15:39;33.20;87.20
33815;DHT22;20121;51.910;8.406;2022-08-03T10:18:05;33.00;86.30
33815;DHT22;20121;51.910;8.406;2022-08-03T10:20:36;33.30;94.10
33815;DHT22;20121;51.910;8.406;2022-08-03T10:23:04;33.30;84.00
33815;DHT22;20121;51.910;8.406;2022-08-03T10:25:30;33.50;85.00
33815;DHT22;20121;51.910;8.406;2022-08-03T10:27:57;33.70;82.00
33815;DHT22;20121;51.910;8.406;2022-08-03T10:30:26;34.20;92.70
33815;DHT22;20121;51.910;8.406;2022-08-03T10:33:04;33.30;83.50
33815;DHT22;20121;51.910;8.406;2022-08-03T10:35:36;33.00;81.60
33815;DHT22;20121;51.910;8.406;2022-08-03T10:38:15;33.10;83.20
33815;DHT22;20121;51.910;8.406;2022-08-03T10:40:43;33.60;80.20
33815;DHT22;20121;51.910;8.406;2022-08-03T10:43:11;33.60;80.50
33815;DHT22;20121;51.910;8.406;2022-08-03T10:45:41;33.60;81.40
33815;DHT22;20121;51.910;8.406;2022-08-03T10:48:08;33.40;81.70
33815;DHT22;20121;51.910;8.406;2022-08-03T10:50:34;33.30;82.50
33815;DHT22;20121;51.910;8.406;2022-08-03T10:53:05;33.40;83.80
33815;DHT22;20121;51.910;8.406;2022-08-03T10:55:40;33.40;81.70
33815;DHT22;20121;51.910;8.406;2022-08-03T11:01:07;34.20;82.90
33815;DHT22;20121;51.910;8.406;2022-08-03T11:08:46;34.20;78.90
33815;DHT22;20121;51.910;8.406;2022-08-03T11:14:02;33.30;79.30
33815;DHT22;20121;51.910;8.406;2022-08-03T11:16:30;32.60;81.40
33815;DHT22;20121;51.910;8.406;2022-08-03T11:18:59;32.70;81.20
33815;DHT22;20121;51.910;8.406;2022-08-03T11:30:05;34.20;80.40
33815;DHT22;20121;51.910;8.406;2022-08-03T11:35:26;33.70;78.30
33815;DHT22;20121;51.910;8.406;2022-08-03T11:40:38;33.50;87.90
33815;DHT22;20121;51.910;8.406;2022-08-03T11:43:07;33.10;79.80
33815;DHT22;20121;51.910;8.406;2022-08-03T11:45:33;33.50;78.90
33815;DHT22;20121;51.910;8.406;2022-08-03T11:48:11;33.50;78.20
33815;DHT22;20121;51.910;8.406;2022-08-03T11:50:38;34.10;76.80
33815;DHT22;20121;51.910;8.406;2022-08-03T11:53:05;34.10;77.30
33815;DHT22;20121;51.910;8.406;2022-08-03T11:55:31;34.30;77.60
33815;DHT22;20121;51.910;8.406;2022-08-03T11:58:00;35.10;75.80
33815;DHT22;20121;51.910;8.406;2022-08-03T12:00:31;34.00;87.60
33815;DHT22;20121;51.910;8.406;2022-08-03T12:03:02;34.40;77.30
33815;DHT22;20121;51.910;8.406;2022-08-03T12:05:46;34.30;75.40
33815;DHT22;20121;51.910;8.406;2022-08-03T12:08:15;34.40;76.00
33815;DHT22;20121;51.910;8.406;2022-08-03T12:10:47;34.90;74.10
33815;DHT22;20121;51.910;8.406;2022-08-03T12:13:13;34.90;74.90
33815;DHT22;20121;51.910;8.406;2022-08-03T12:15:39;34.30;72.80
33815;DHT22;20121;51.910;8.406;2022-08-03T12:18:17;34.00;73.90
33815;DHT22;20121;51.910;8.406;2022-08-03T12:20:44;34.40;73.80
33815;DHT22;20121;51.910;8.406;2022-08-03T12:23:10;34.40;72.80
33815;DHT22;20121;51.910;8.406;2022-08-03T12:25:38;34.20;72.90
33815;DHT22;20121;51.910;8.406;2022-08-03T12:28:13;33.80;73.10
33815;DHT22;20121;51.910;8.406;2022-08-03T12:30:41;33.70;74.30
33815;DHT22;20121;51.910;8.406;2022-08-03T12:33:26;33.70;73.90
33815;DHT22;20121;51.910;8.406;2022-08-03T12:38:30;33.70;73.00
33815;DHT22;20121;51.910;8.406;2022-08-03T12:41:05;34.10;72.80
33815;DHT22;20121;51.910;8.406;2022-08-03T12:43:31;34.20;73.20
33815;DHT22;20121;51.910;8.406;2022-08-03T12:46:07;34.60;71.60
33815;DHT22;20121;51.910;8.406;2022-08-03T12:48:33;34.70;73.30
33815;DHT22;20121;51.910;8.406;2022-08-03T12:51:11;34.70;71.40
33815;DHT22;20121;51.910;8.406;2022-08-03T12:53:37;34.70;71.20
33815;DHT22;20121;51.910;8.406;2022-08-03T12:56:04;34.70;73.20
33815;DHT22;20121;51.910;8.406;2022-08-03T12:58:34;35.60;71.80
33815;DHT22;20121;51.910;8.406;2022-08-03T13:01:04;34.40;70.40
33815;DHT22;20121;51.910;8.406;2022-08-03T13:03:43;34.40;71.70
33815;DHT22;20121;51.910;8.406;2022-08-03T13:06:13;34.60;70.90
33815;DHT22;20121;51.910;8.406;2022-08-03T13:08:40;34.70;70.40
33815;DHT22;20121;51.910;8.406;2022-08-03T13:11:23;34.60;69.90
33815;DHT22;20121;51.910;8.406;2022-08-03T13:13:50;34.60;69.10
33815;DHT22;20121;51.910;8.406;2022-08-03T13:16:16;34.70;70.80
33815;DHT22;20121;51.910;8.406;2022-08-03T13:18:42;34.80;69.40
33815;DHT22;20121;51.910;8.406;2022-08-03T13:21:07;34.30;70.30
33815;DHT22;20121;51.910;8.406;2022-08-03T13:23:33;34.30;70.30
33815;DHT22;20121;51.910;8.406;2022-08-03T13:25:59;34.40;71.40
33815;DHT22;20121;51.910;8.406;2022-08-03T13:28:24;34.50;69.80
33815;DHT22;20121;51.910;8.406;2022-08-03T13:30:50;34.70;70.20
33815;DHT22;20121;51.910;8.406;2022-08-03T13:33:16;34.80;71.50
33815;DHT22;20121;51.910;8.406;2022-08-03T13:35:42;34.70;68.80
33815;DHT22;20121;51.910;8.406;2022-08-03T13:38:07;34.70;68.90
33815;DHT22;20121;51.910;8.406;2022-08-03T13:40:33;34.60;68.30
33815;DHT22;20121;51.910;8.406;2022-08-03T13:42:59;34.60;68.20
33815;DHT22;20121;51.910;8.406;2022-08-03T13:45:24;34.70;69.10
33815;DHT22;20121;51.910;8.406;2022-08-03T13:47:52;34.50;71.00
33815;DHT22;20121;51.910;8.406;2022-08-03T13:50:18;34.30;70.30
33815;DHT22;20121;51.910;8.406;2022-08-03T13:55:11;34.30;68.40
33815;DHT22;20121;51.910;8.406;2022-08-03T13:57:36;34.40;68.30
33815;DHT22;20121;51.910;8.406;2022-08-03T14:00:04;34.10;70.80
33815;DHT22;20121;51.910;8.406;2022-08-03T14:02:30;34.20;69.20
33815;DHT22;20121;51.910;8.406;2022-08-03T14:04:55;33.90;70.20
33815;DHT22;20121;51.910;8.406;2022-08-03T14:07:21;33.70;71.20
33815;DHT22;20121;51.910;8.406;2022-08-03T14:09:47;33.50;70.10
33815;DHT22;20121;51.910;8.406;2022-08-03T14:12:12;33.40;70.50
33815;DHT22;20121;51.910;8.406;2022-08-03T14:14:38;33.40;71.70
33815;DHT22;20121;51.910;8.406;2022-08-03T14:17:03;33.40;73.80
33815;DHT22;20121;51.910;8.406;2022-08-03T14:19:29;33.50;71.10
33815;DHT22;20121;51.910;8.406;2022-08-03T14:21:55;33.40;71.30
33815;DHT22;20121;51.910;8.406;2022-08-03T14:24:20;32.80;74.60
33815;DHT22;20121;51.910;8.406;2022-08-03T14:26:46;33.20;72.60
33815;DHT22;20121;51.910;8.406;2022-08-03T14:29:12;33.20;70.50
33815;DHT22;20121;51.910;8.406;2022-08-03T14:31:37;33.00;71.50
33815;DHT22;20121;51.910;8.406;2022-08-03T14:34:03;32.60;72.90
33815;DHT22;20121;51.910;8.406;2022-08-03T14:36:29;33.10;70.90
33815;DHT22;20121;51.910;8.406;2022-08-03T14:38:54;33.00;71.10
33815;DHT22;20121;51.910;8.406;2022-08-03T14:41:20;33.10;71.60
33815;DHT22;20121;51.910;8.406;2022-08-03T14:43:46;33.00;72.40
33815;DHT22;20121;51.910;8.406;2022-08-03T14:46:12;33.10;83.40
33815;DHT22;20121;51.910;8.406;2022-08-03T14:48:38;33.00;70.50
33815;DHT22;20121;51.910;8.406;2022-08-03T14:51:04;32.90;71.80
33815;DHT22;20121;51.910;8.406;2022-08-03T14:53:29;33.00;72.00
33815;DHT22;20121;51.910;8.406;2022-08-03T14:55:55;32.50;71.00
33815;DHT22;20121;51.910;8.406;2022-08-03T14:58:22;32.70;69.60
33815;DHT22;20121;51.910;8.406;2022-08-03T15:00:51;32.60;70.50
33815;DHT22;20121;51.910;8.406;2022-08-03T15:03:18;32.60;69.50
33815;DHT22;20121;51.910;8.406;2022-08-03T15:05:47;32.60;71.40
33815;DHT22;20121;51.910;8.406;2022-08-03T15:08:13;32.70;70.70
33815;DHT22;20121;51.910;8.406;2022-08-03T15:10:39;32.70;71.00
33815;DHT22;20121;51.910;8.406;2022-08-03T15:13:04;32.80;68.90
33815;DHT22;20121;51.910;8.406;2022-08-03T15:15:30;32.70;70.00
33815;DHT22;20121;51.910;8.406;2022-08-03T15:17:56;32.70;69.20
33815;DHT22;20121;51.910;8.406;2022-08-03T15:20:21;32.70;71.30
33815;DHT22;20121;51.910;8.406;2022-08-03T15:22:47;32.60;70.70
33815;DHT22;20121;51.910;8.406;2022-08-03T15:25:13;32.50;70.60
33815;DHT22;20121;51.910;8.406;2022-08-03T15:27:38;32.40;71.50
33815;DHT22;20121;51.910;8.406;2022-08-03T15:30:04;32.20;71.10
33815;DHT22;20121;51.910;8.406;2022-08-03T15:32:34;32.10;72.40
33815;DHT22;20121;51.910;8.406;2022-08-03T15:35:00;32.00;73.00
33815;DHT22;20121;51.910;8.406;2022-08-03T15:37:26;31.90;74.20
33815;DHT22;20121;51.910;8.406;2022-08-03T15:39:52;31.80;73.30
33815;DHT22;20121;51.910;8.406;2022-08-03T15:42:17;31.80;72.60
33815;DHT22;20121;51.910;8.406;2022-08-03T15:44:43;31.70;74.20
33815;DHT22;20121;51.910;8.406;2022-08-03T15:47:09;31.60;74.70
33815;DHT22;20121;51.910;8.406;2022-08-03T15:49:34;31.60;76.70
33815;DHT22;20121;51.910;8.406;2022-08-03T15:52:00;31.60;76.80
33815;DHT22;20121;51.910;8.406;2022-08-03T15:54:26;31.50;75.20
33815;DHT22;20121;51.910;8.406;2022-08-03T15:56:52;31.50;75.30
33815;DHT22;20121;51.910;8.406;2022-08-03T15:59:18;31.60;77.80
33815;DHT22;20121;51.910;8.406;2022-08-03T16:01:47;31.70;77.60
33815;DHT22;20121;51.910;8.406;2022-08-03T16:04:13;31.60;87.70
33815;DHT22;20121;51.910;8.406;2022-08-03T16:06:38;32.00;76.70
33815;DHT22;20121;51.910;8.406;2022-08-03T16:09:05;32.10;74.60
33815;DHT22;20121;51.910;8.406;2022-08-03T16:11:32;32.10;75.40
33815;DHT22;20121;51.910;8.406;2022-08-03T16:13:58;32.10;75.10
33815;DHT22;20121;51.910;8.406;2022-08-03T16:16:24;32.10;76.40
33815;DHT22;20121;51.910;8.406;2022-08-03T16:18:50;32.00;75.10
33815;DHT22;20121;51.910;8.406;2022-08-03T16:21:15;32.00;76.00